createdAt,value
2018-06-01T00:00:38.466Z,20.47
2018-06-01T00:01:38.412Z,20.44
2018-06-01T00:02:38.403Z,20.44
2018-06-01T00:03:38.403Z,20.41
2018-06-01T00:04:38.406Z,20.41
2018-06-01T00:05:38.403Z,20.44
2018-06-01T00:06:38.390Z,20.40
2018-06-01T00:07:38.388Z,20.44
2018-06-01T00:08:38.384Z,20.44
2018-06-01T00:09:38.381Z,20.39
2018-06-01T00:10:38.375Z,20.44
2018-06-01T00:11:38.997Z,20.39
2018-06-01T00:12:38.397Z,20.44
2018-06-01T00:13:38.391Z,20.50
2018-06-01T00:14:38.366Z,20.37
2018-06-01T00:15:38.367Z,20.39
2018-06-01T00:16:38.363Z,20.37
2018-06-01T00:17:38.353Z,20.39
2018-06-01T00:18:38.349Z,20.39
2018-06-01T00:19:38.343Z,20.43
2018-06-01T00:20:38.343Z,20.36
2018-06-01T00:21:38.342Z,20.39
2018-06-01T00:22:38.342Z,20.36
2018-06-01T00:23:38.334Z,20.37
2018-06-01T00:24:38.332Z,20.41
2018-06-01T00:25:38.333Z,20.36
2018-06-01T00:26:38.325Z,20.34
2018-06-01T00:27:38.323Z,20.41
2018-06-01T00:28:38.319Z,20.37
2018-06-01T00:29:38.313Z,20.26
2018-06-01T00:30:38.315Z,20.28
2018-06-01T00:31:38.309Z,20.31
2018-06-01T00:32:38.306Z,20.26
2018-06-01T00:33:38.303Z,20.31
2018-06-01T00:34:38.295Z,20.28
2018-06-01T00:35:38.299Z,20.28
2018-06-01T00:36:38.292Z,20.26
2018-06-01T00:37:38.286Z,20.28
2018-06-01T00:38:38.285Z,20.26
2018-06-01T00:39:38.285Z,20.24
2018-06-01T00:40:38.282Z,20.18
2018-06-01T00:41:38.276Z,20.16
2018-06-01T00:42:38.270Z,20.19
2018-06-01T00:43:38.266Z,20.19
2018-06-01T00:44:38.268Z,20.09
2018-06-01T00:45:38.259Z,20.11
2018-06-01T00:46:38.257Z,20.11
2018-06-01T00:47:38.251Z,20.07
2018-06-01T00:48:38.251Z,20.16
2018-06-01T00:49:38.246Z,20.13
2018-06-01T00:50:38.243Z,20.06
2018-06-01T00:51:38.239Z,20.07
2018-06-01T00:52:38.237Z,20.10
2018-06-01T00:53:38.232Z,20.10
2018-06-01T00:54:38.227Z,20.04
2018-06-01T00:55:38.225Z,20.06
2018-06-01T00:56:38.222Z,20.03
2018-06-01T00:57:38.217Z,20.09
2018-06-01T00:58:38.215Z,20.04
2018-06-01T00:59:38.217Z,20.10
2018-06-01T01:00:38.207Z,20.06
2018-06-01T01:01:38.210Z,20.07
2018-06-01T01:02:38.201Z,20.00
2018-06-01T01:03:38.203Z,20.09
2018-06-01T01:04:38.190Z,20.09
2018-06-01T01:05:38.189Z,20.09
2018-06-01T01:06:38.183Z,20.04
2018-06-01T01:07:38.188Z,19.96
2018-06-01T01:08:38.185Z,20.10
2018-06-01T01:09:38.178Z,20.07
2018-06-01T01:10:38.169Z,20.13
2018-06-01T01:11:38.167Z,20.03
2018-06-01T01:12:38.174Z,20.02
2018-06-01T01:13:38.170Z,19.96
2018-06-01T01:14:38.158Z,20.03
2018-06-01T01:15:38.159Z,19.89
2018-06-01T01:16:38.149Z,20.07
2018-06-01T01:17:38.150Z,19.95
2018-06-01T01:18:38.153Z,19.96
2018-06-01T01:19:38.142Z,20.00
2018-06-01T01:20:38.141Z,20.02
2018-06-01T01:21:38.132Z,19.92
2018-06-01T01:22:38.129Z,19.86
2018-06-01T01:23:38.125Z,19.92
2018-06-01T01:24:38.143Z,19.96
2018-06-01T01:25:38.119Z,19.95
2018-06-01T01:26:38.113Z,19.89
2018-06-01T01:27:38.112Z,19.94
2018-06-01T01:28:38.108Z,19.89
2018-06-01T01:29:38.107Z,19.94
2018-06-01T01:30:38.100Z,19.95
2018-06-01T01:31:38.097Z,19.96
2018-06-01T01:32:38.094Z,19.96
2018-06-01T01:33:38.084Z,19.95
2018-06-01T01:34:38.091Z,19.94
2018-06-01T01:35:38.083Z,19.92
2018-06-01T01:36:38.079Z,19.91
2018-06-01T01:37:38.080Z,19.96
2018-06-01T01:38:38.071Z,19.94
2018-06-01T01:39:38.068Z,19.89
2018-06-01T01:40:38.070Z,19.82
2018-06-01T01:41:38.060Z,19.81
2018-06-01T01:42:38.056Z,19.84
2018-06-01T01:43:38.054Z,19.79
2018-06-01T01:44:38.051Z,19.81
2018-06-01T01:45:38.044Z,19.73
2018-06-01T01:46:38.041Z,19.76
2018-06-01T01:47:38.038Z,19.88
2018-06-01T01:48:38.042Z,19.71
2018-06-01T01:49:38.031Z,19.82
2018-06-01T01:50:38.027Z,19.84
2018-06-01T01:51:38.024Z,19.86
2018-06-01T01:52:38.022Z,19.85
2018-06-01T01:53:38.017Z,19.71
2018-06-01T01:54:38.016Z,19.85
2018-06-01T01:55:38.007Z,19.85
2018-06-01T01:56:38.009Z,19.77
2018-06-01T01:57:38.004Z,19.71
2018-06-01T01:58:38.001Z,19.82
2018-06-01T01:59:37.997Z,19.88
2018-06-01T02:00:37.995Z,19.82
2018-06-01T02:01:37.991Z,19.79
2018-06-01T02:02:37.984Z,19.77
2018-06-01T02:03:37.981Z,19.74
2018-06-01T02:04:37.973Z,19.77
2018-06-01T02:05:37.973Z,19.74
2018-06-01T02:06:37.972Z,19.81
2018-06-01T02:07:37.966Z,19.77
2018-06-01T02:08:37.962Z,19.69
2018-06-01T02:09:37.960Z,19.73
2018-06-01T02:10:37.961Z,19.76
2018-06-01T02:11:37.948Z,19.77
2018-06-01T02:12:37.945Z,19.66
2018-06-01T02:13:37.955Z,19.67
2018-06-01T02:14:37.936Z,19.64
2018-06-01T02:15:37.967Z,19.70
2018-06-01T02:16:37.947Z,19.67
2018-06-01T02:17:37.940Z,19.67
2018-06-01T02:18:37.931Z,19.64
2018-06-01T02:19:37.924Z,19.64
2018-06-01T02:20:37.922Z,19.70
2018-06-01T02:21:37.925Z,19.67
2018-06-01T02:22:37.939Z,19.59
2018-06-01T02:23:37.907Z,19.55
2018-06-01T02:24:37.905Z,19.52
2018-06-01T02:25:37.906Z,19.51
2018-06-01T02:26:37.909Z,19.49
2018-06-01T02:27:37.898Z,19.56
2018-06-01T02:28:37.892Z,19.48
2018-06-01T02:29:37.903Z,19.48
2018-06-01T02:30:37.895Z,19.47
2018-06-01T02:31:37.893Z,19.48
2018-06-01T02:32:37.906Z,19.48
2018-06-01T02:33:37.876Z,19.41
2018-06-01T02:34:37.869Z,19.54
2018-06-01T02:35:37.880Z,19.40
2018-06-01T02:36:37.870Z,19.41
2018-06-01T02:37:37.859Z,19.44
2018-06-01T02:38:37.852Z,19.48
2018-06-01T02:39:37.847Z,19.48
2018-06-01T02:40:37.845Z,19.36
2018-06-01T02:41:38.562Z,19.39
2018-06-01T02:42:37.842Z,19.40
2018-06-01T02:43:37.837Z,19.45
2018-06-01T02:44:37.831Z,19.44
2018-06-01T02:45:37.829Z,19.51
2018-06-01T02:46:37.824Z,19.40
2018-06-01T02:47:37.820Z,19.45
2018-06-01T02:48:37.818Z,19.40
2018-06-01T02:49:37.816Z,19.40
2018-06-01T02:50:37.811Z,19.52
2018-06-01T02:51:37.802Z,19.47
2018-06-01T02:52:37.800Z,19.47
2018-06-01T02:53:37.799Z,19.52
2018-06-01T02:54:37.797Z,19.48
2018-06-01T02:55:37.789Z,19.48
2018-06-01T02:56:37.785Z,19.52
2018-06-01T02:57:37.780Z,19.52
2018-06-01T02:58:37.785Z,19.52
2018-06-01T02:59:37.776Z,19.47
2018-06-01T03:00:37.768Z,19.55
2018-06-01T03:01:37.767Z,19.51
2018-06-01T03:02:37.763Z,19.54
2018-06-01T03:03:37.760Z,19.49
2018-06-01T03:04:37.755Z,19.49
2018-06-01T03:05:37.752Z,19.55
2018-06-01T03:06:37.749Z,19.55
2018-06-01T03:07:37.745Z,19.52
2018-06-01T03:08:37.743Z,19.49
2018-06-01T03:09:37.737Z,19.56
2018-06-01T03:10:37.730Z,19.48
2018-06-01T03:11:37.729Z,19.48
2018-06-01T03:12:37.724Z,19.52
2018-06-01T03:13:37.723Z,19.52
2018-06-01T03:14:37.718Z,19.47
2018-06-01T03:15:37.715Z,19.54
2018-06-01T03:16:37.710Z,19.59
2018-06-01T03:17:37.705Z,19.58
2018-06-01T03:18:37.708Z,19.55
2018-06-01T03:19:37.694Z,19.63
2018-06-01T03:20:37.694Z,19.59
2018-06-01T03:21:37.692Z,19.59
2018-06-01T03:22:37.686Z,19.58
2018-06-01T03:23:37.681Z,19.56
2018-06-01T03:24:37.681Z,19.63
2018-06-01T03:25:37.678Z,19.67
2018-06-01T03:26:37.680Z,19.67
2018-06-01T03:27:37.669Z,19.67
2018-06-01T03:28:37.667Z,19.64
2018-06-01T03:29:37.667Z,19.67
2018-06-01T03:30:37.653Z,19.64
2018-06-01T03:31:37.652Z,19.64
2018-06-01T03:32:37.649Z,19.70
2018-06-01T03:33:37.645Z,19.79
2018-06-01T03:34:37.644Z,19.86
2018-06-01T03:35:37.639Z,19.86
2018-06-01T03:36:37.636Z,19.81
2018-06-01T03:37:37.638Z,19.88
2018-06-01T03:38:37.622Z,19.76
2018-06-01T03:39:37.623Z,19.70
2018-06-01T03:40:37.624Z,19.79
2018-06-01T03:41:37.614Z,19.77
2018-06-01T03:42:38.589Z,19.71
2018-06-01T03:43:37.611Z,19.71
2018-06-01T03:44:37.611Z,19.77
2018-06-01T03:45:37.605Z,19.84
2018-06-01T03:46:37.599Z,19.79
2018-06-01T03:47:37.603Z,19.79
2018-06-01T03:48:37.590Z,19.86
2018-06-01T03:49:37.590Z,19.82
2018-06-01T03:50:37.583Z,19.85
2018-06-01T03:51:37.583Z,19.84
2018-06-01T03:52:37.577Z,19.85
2018-06-01T03:53:37.574Z,20.00
2018-06-01T03:54:37.573Z,20.02
2018-06-01T03:55:37.568Z,20.07
2018-06-01T03:56:37.565Z,20.06
2018-06-01T03:57:37.559Z,20.07
2018-06-01T03:58:37.553Z,20.14
2018-06-01T03:59:37.554Z,20.09
2018-06-01T04:00:37.545Z,20.14
2018-06-01T04:01:37.544Z,20.18
2018-06-01T04:02:37.542Z,20.26
2018-06-01T04:03:37.539Z,20.29
2018-06-01T04:04:37.537Z,20.34
2018-06-01T04:05:37.529Z,20.39
2018-06-01T04:06:37.531Z,20.34
2018-06-01T04:07:37.534Z,20.47
2018-06-01T04:08:37.519Z,20.43
2018-06-01T04:09:37.520Z,20.52
2018-06-01T04:10:37.521Z,20.55
2018-06-01T04:11:37.510Z,20.52
2018-06-01T04:12:37.508Z,20.48
2018-06-01T04:13:37.503Z,20.65
2018-06-01T04:14:37.504Z,20.65
2018-06-01T04:15:37.501Z,20.74
2018-06-01T04:16:37.496Z,20.63
2018-06-01T04:17:37.511Z,20.65
2018-06-01T04:18:37.483Z,20.65
2018-06-01T04:19:37.483Z,20.66
2018-06-01T04:20:37.475Z,20.65
2018-06-01T04:21:37.484Z,20.66
2018-06-01T04:22:37.474Z,20.63
2018-06-01T04:23:37.473Z,20.66
2018-06-01T04:24:37.467Z,20.65
2018-06-01T04:25:37.464Z,20.69
2018-06-01T04:26:37.472Z,20.63
2018-06-01T04:27:37.513Z,20.63
2018-06-01T04:28:37.461Z,20.66
2018-06-01T04:29:37.452Z,20.58
2018-06-01T04:30:37.449Z,20.66
2018-06-01T04:31:37.451Z,20.66
2018-06-01T04:32:37.444Z,20.65
2018-06-01T04:33:37.438Z,20.62
2018-06-01T04:34:37.439Z,20.65
2018-06-01T04:35:37.436Z,20.69
2018-06-01T04:36:37.430Z,20.62
2018-06-01T04:37:37.428Z,20.67
2018-06-01T04:38:37.421Z,20.66
2018-06-01T04:39:37.424Z,20.62
2018-06-01T04:40:37.423Z,20.66
2018-06-01T04:41:37.416Z,20.66
2018-06-01T04:42:37.411Z,20.56
2018-06-01T04:43:37.409Z,20.59
2018-06-01T04:44:37.407Z,20.52
2018-06-01T04:45:37.402Z,20.51
2018-06-01T04:46:37.400Z,20.56
2018-06-01T04:47:37.400Z,20.51
2018-06-01T04:48:37.396Z,20.59
2018-06-01T04:49:37.399Z,20.63
2018-06-01T04:50:37.390Z,20.67
2018-06-01T04:51:37.385Z,20.70
2018-06-01T04:52:37.384Z,20.66
2018-06-01T04:53:37.383Z,20.63
2018-06-01T04:54:37.377Z,20.67
2018-06-01T04:55:37.376Z,20.67
2018-06-01T04:56:37.374Z,20.78
2018-06-01T04:57:37.371Z,20.77
2018-06-01T04:58:37.367Z,20.80
2018-06-01T04:59:37.369Z,20.81
2018-06-01T05:00:37.361Z,20.77
2018-06-01T05:01:37.359Z,20.88
2018-06-01T05:02:37.358Z,20.92
2018-06-01T05:03:37.355Z,20.96
2018-06-01T05:04:37.352Z,21.05
2018-06-01T05:05:37.351Z,21.21
2018-06-01T05:06:37.347Z,21.33
2018-06-01T05:07:37.347Z,21.37
2018-06-01T05:08:37.344Z,21.30
2018-06-01T05:09:37.341Z,21.35
2018-06-01T05:10:37.337Z,21.25
2018-06-01T05:11:37.334Z,21.32
2018-06-01T05:12:37.334Z,21.17
2018-06-01T05:13:37.330Z,21.17
2018-06-01T05:14:37.334Z,21.18
2018-06-01T05:15:37.326Z,21.18
2018-06-01T05:16:37.356Z,21.21
2018-06-01T05:17:37.321Z,21.17
2018-06-01T05:18:37.318Z,21.21
2018-06-01T05:19:37.318Z,21.25
2018-06-01T05:20:37.310Z,21.33
2018-06-01T05:21:37.309Z,21.35
2018-06-01T05:22:37.309Z,21.33
2018-06-01T05:23:37.312Z,21.36
2018-06-01T05:24:37.305Z,21.40
2018-06-01T05:25:37.311Z,21.50
2018-06-01T05:26:37.304Z,21.48
2018-06-01T05:27:37.298Z,21.57
2018-06-01T05:28:37.295Z,21.55
2018-06-01T05:29:37.293Z,21.60
2018-06-01T05:30:37.292Z,21.61
2018-06-01T05:31:37.290Z,21.64
2018-06-01T05:32:37.287Z,21.72
2018-06-01T05:33:37.285Z,21.75
2018-06-01T05:34:37.282Z,21.67
2018-06-01T05:35:37.279Z,21.72
2018-06-01T05:36:37.279Z,21.62
2018-06-01T05:37:37.275Z,21.73
2018-06-01T05:38:37.276Z,21.76
2018-06-01T05:39:37.275Z,21.72
2018-06-01T05:40:37.272Z,21.76
2018-06-01T05:41:37.294Z,21.80
2018-06-01T05:42:37.263Z,21.72
2018-06-01T05:43:37.259Z,21.73
2018-06-01T05:44:37.260Z,21.76
2018-06-01T05:45:37.268Z,21.77
2018-06-01T05:46:37.256Z,21.75
2018-06-01T05:47:37.253Z,21.77
2018-06-01T05:48:37.251Z,21.70
2018-06-01T05:49:37.249Z,21.79
2018-06-01T05:50:37.252Z,21.64
2018-06-01T05:51:37.244Z,21.73
2018-06-01T05:52:37.245Z,21.72
2018-06-01T05:53:37.244Z,21.77
2018-06-01T05:54:37.231Z,21.66
2018-06-01T05:55:37.234Z,21.69
2018-06-01T05:56:37.244Z,21.72
2018-06-01T05:57:37.233Z,21.76
2018-06-01T05:58:37.230Z,21.77
2018-06-01T05:59:37.228Z,21.82
2018-06-01T06:00:37.223Z,21.77
2018-06-01T06:01:37.225Z,21.76
2018-06-01T06:02:37.221Z,21.77
2018-06-01T06:03:37.218Z,21.93
2018-06-01T06:04:37.275Z,21.93
2018-06-01T06:05:37.211Z,21.85
2018-06-01T06:06:37.212Z,21.85
2018-06-01T06:07:37.212Z,21.89
2018-06-01T06:08:37.210Z,21.88
2018-06-01T06:09:37.208Z,21.92
2018-06-01T06:10:37.221Z,21.89
2018-06-01T06:11:37.206Z,21.91
2018-06-01T06:12:37.202Z,21.92
2018-06-01T06:13:37.259Z,21.96
2018-06-01T06:14:37.199Z,22.02
2018-06-01T06:15:37.197Z,21.98
2018-06-01T06:16:37.203Z,22.02
2018-06-01T06:17:37.191Z,22.13
2018-06-01T06:18:37.216Z,22.06
2018-06-01T06:19:37.191Z,22.11
2018-06-01T06:20:37.186Z,22.08
2018-06-01T06:21:37.188Z,22.13
2018-06-01T06:22:37.189Z,22.13
2018-06-01T06:23:37.185Z,22.11
2018-06-01T06:24:37.183Z,22.10
2018-06-01T06:25:37.218Z,22.11
2018-06-01T06:26:37.180Z,22.20
2018-06-01T06:27:37.178Z,22.22
2018-06-01T06:28:37.182Z,22.25
2018-06-01T06:29:37.172Z,22.28
2018-06-01T06:30:37.171Z,22.43
2018-06-01T06:31:37.173Z,22.41
2018-06-01T06:32:37.170Z,22.45
2018-06-01T06:33:37.174Z,22.51
2018-06-01T06:34:37.171Z,22.59
2018-06-01T06:35:37.171Z,22.59
2018-06-01T06:36:37.170Z,22.78
2018-06-01T06:37:37.227Z,22.85
2018-06-01T06:38:37.168Z,22.99
2018-06-01T06:39:37.166Z,23.12
2018-06-01T06:40:37.166Z,23.25
2018-06-01T06:41:37.180Z,23.34
2018-06-01T06:42:37.185Z,23.51
2018-06-01T06:43:37.163Z,23.71
2018-06-01T06:44:37.165Z,23.77
2018-06-01T06:45:37.167Z,23.91
2018-06-01T06:46:37.174Z,24.01
2018-06-01T06:47:37.165Z,24.05
2018-06-01T06:48:37.171Z,24.26
2018-06-01T06:49:37.169Z,24.32
2018-06-01T06:50:37.171Z,24.35
2018-06-01T06:51:37.172Z,24.30
2018-06-01T06:52:37.175Z,24.42
2018-06-01T06:53:37.177Z,24.40
2018-06-01T06:54:37.177Z,24.45
2018-06-01T06:55:37.179Z,24.43
2018-06-01T06:56:37.187Z,24.40
2018-06-01T06:57:37.185Z,24.42
2018-06-01T06:58:37.189Z,24.47
2018-06-01T06:59:37.189Z,24.58
2018-06-01T07:00:37.196Z,24.65
2018-06-01T07:01:37.195Z,24.84
2018-06-01T07:02:37.199Z,24.69
2018-06-01T07:03:37.195Z,24.80
2018-06-01T07:04:37.200Z,24.86
2018-06-01T07:05:37.199Z,24.93
2018-06-01T07:06:37.205Z,24.92
2018-06-01T07:07:37.214Z,24.95
2018-06-01T07:08:37.208Z,25.01
2018-06-01T07:09:37.211Z,24.99
2018-06-01T07:10:37.247Z,24.96
2018-06-01T07:11:37.218Z,25.04
2018-06-01T07:12:37.223Z,24.96
2018-06-01T07:13:37.226Z,24.96
2018-06-01T07:14:37.230Z,24.92
2018-06-01T07:15:37.234Z,24.80
2018-06-01T07:16:37.236Z,24.73
2018-06-01T07:17:37.255Z,24.81
2018-06-01T07:18:37.243Z,24.77
2018-06-01T07:19:37.243Z,24.57
2018-06-01T07:20:37.247Z,24.58
2018-06-01T07:21:37.252Z,24.57
2018-06-01T07:22:37.302Z,24.48
2018-06-01T07:23:37.257Z,24.43
2018-06-01T07:24:37.258Z,24.32
2018-06-01T07:25:37.262Z,24.29
2018-06-01T07:26:37.263Z,24.21
2018-06-01T07:27:37.296Z,24.08
2018-06-01T07:28:37.268Z,24.08
2018-06-01T07:29:37.269Z,24.02
2018-06-01T07:30:37.274Z,23.95
2018-06-01T07:31:37.275Z,23.99
2018-06-01T07:32:37.272Z,23.92
2018-06-01T07:33:37.280Z,23.86
2018-06-01T07:34:37.280Z,23.83
2018-06-01T07:35:37.284Z,23.78
2018-06-01T07:36:37.278Z,23.76
2018-06-01T07:37:37.300Z,23.74
2018-06-01T07:38:37.284Z,23.76
2018-06-01T07:39:37.287Z,23.73
2018-06-01T07:40:37.303Z,23.58
2018-06-01T07:41:37.301Z,23.71
2018-06-01T07:42:37.295Z,23.63
2018-06-01T07:43:37.289Z,23.50
2018-06-01T07:44:37.311Z,23.55
2018-06-01T07:45:37.309Z,23.39
2018-06-01T07:46:37.287Z,23.32
2018-06-01T07:47:37.291Z,23.32
2018-06-01T07:48:37.289Z,23.31
2018-06-01T07:49:37.293Z,23.31
2018-06-01T07:50:37.299Z,23.34
2018-06-01T07:51:37.293Z,23.32
2018-06-01T07:52:37.312Z,23.21
2018-06-01T07:53:37.296Z,23.09
2018-06-01T07:54:37.311Z,23.15
2018-06-01T07:55:37.308Z,22.96
2018-06-01T07:56:37.291Z,22.83
2018-06-01T07:57:37.291Z,22.83
2018-06-01T07:58:37.288Z,22.69
2018-06-01T07:59:37.286Z,22.60
2018-06-01T08:00:37.285Z,22.55
2018-06-01T08:01:37.286Z,22.47
2018-06-01T08:02:37.287Z,22.30
2018-06-01T08:03:37.315Z,22.20
2018-06-01T08:04:37.295Z,22.18
2018-06-01T08:05:37.287Z,22.14
2018-06-01T08:06:37.286Z,22.04
2018-06-01T08:07:37.281Z,21.82
2018-06-01T08:08:37.282Z,21.72
2018-06-01T08:09:37.281Z,21.77
2018-06-01T08:10:37.278Z,21.75
2018-06-01T08:11:37.281Z,21.72
2018-06-01T08:12:37.270Z,21.89
2018-06-01T08:13:37.274Z,21.89
2018-06-01T08:14:37.311Z,21.91
2018-06-01T08:15:37.264Z,21.88
2018-06-01T08:16:37.280Z,21.85
2018-06-01T08:17:37.260Z,21.82
2018-06-01T08:18:37.318Z,21.75
2018-06-01T08:19:37.263Z,21.77
2018-06-01T08:20:37.258Z,21.73
2018-06-01T08:21:37.252Z,21.77
2018-06-01T08:22:37.252Z,21.76
2018-06-01T08:23:37.254Z,21.73
2018-06-01T08:24:37.247Z,21.69
2018-06-01T08:25:37.244Z,21.77
2018-06-01T08:26:37.239Z,21.72
2018-06-01T08:27:37.241Z,21.79
2018-06-01T08:28:37.241Z,21.75
2018-06-01T08:29:37.236Z,21.66
2018-06-01T08:30:37.234Z,21.77
2018-06-01T08:31:37.230Z,21.70
2018-06-01T08:32:37.240Z,21.64
2018-06-01T08:33:37.227Z,21.70
2018-06-01T08:34:37.226Z,21.70
2018-06-01T08:35:37.220Z,21.61
2018-06-01T08:36:37.219Z,21.67
2018-06-01T08:37:37.215Z,21.60
2018-06-01T08:38:37.213Z,21.66
2018-06-01T08:39:37.217Z,21.64
2018-06-01T08:40:37.213Z,21.62
2018-06-01T08:41:37.205Z,21.60
2018-06-01T08:42:37.204Z,21.66
2018-06-01T08:43:37.201Z,21.64
2018-06-01T08:44:37.201Z,21.62
2018-06-01T08:45:37.196Z,21.60
2018-06-01T08:46:37.250Z,21.54
2018-06-01T08:47:37.192Z,21.58
2018-06-01T08:48:37.188Z,21.61
2018-06-01T08:49:37.184Z,21.39
2018-06-01T08:50:37.183Z,21.39
2018-06-01T08:51:37.182Z,21.39
2018-06-01T08:52:37.178Z,21.29
2018-06-01T08:53:37.175Z,21.29
2018-06-01T08:54:37.172Z,21.33
2018-06-01T08:55:37.174Z,21.25
2018-06-01T08:56:37.174Z,21.35
2018-06-01T08:57:37.167Z,21.22
2018-06-01T08:58:37.160Z,21.18
2018-06-01T08:59:37.170Z,21.14
2018-06-01T09:00:37.170Z,21.07
2018-06-01T09:01:37.153Z,21.03
2018-06-01T09:02:37.155Z,20.96
2018-06-01T09:03:37.154Z,20.95
2018-06-01T09:04:37.234Z,20.93
2018-06-01T09:05:37.150Z,20.90
2018-06-01T09:06:37.145Z,20.87
2018-06-01T09:07:37.137Z,20.84
2018-06-01T09:08:37.135Z,20.85
2018-06-01T09:09:37.145Z,20.77
2018-06-01T09:10:37.127Z,20.78
2018-06-01T09:11:37.128Z,20.81
2018-06-01T09:12:37.121Z,20.81
2018-06-01T09:13:37.120Z,20.85
2018-06-01T09:14:37.131Z,20.84
2018-06-01T09:15:37.112Z,20.74
2018-06-01T09:16:37.183Z,20.67
2018-06-01T09:17:37.110Z,20.65
2018-06-01T09:18:37.113Z,20.58
2018-06-01T09:19:37.103Z,20.52
2018-06-01T09:20:37.100Z,20.34
2018-06-01T09:21:37.111Z,20.32
2018-06-01T09:22:37.091Z,20.40
2018-06-01T09:23:37.088Z,20.41
2018-06-01T09:24:37.086Z,20.39
2018-06-01T09:25:37.078Z,20.31
2018-06-01T09:26:37.079Z,20.32
2018-06-01T09:27:37.077Z,20.43
2018-06-01T09:28:37.070Z,20.43
2018-06-01T09:29:37.064Z,20.41
2018-06-01T09:30:37.073Z,20.37
2018-06-01T09:31:37.065Z,20.22
2018-06-01T09:32:37.063Z,20.18
2018-06-01T09:33:37.067Z,20.11
2018-06-01T09:34:37.051Z,20.04
2018-06-01T09:35:37.046Z,19.96
2018-06-01T09:36:37.043Z,20.02
2018-06-01T09:37:37.037Z,19.96
2018-06-01T09:38:37.036Z,19.94
2018-06-01T09:39:37.033Z,20.00
2018-06-01T09:40:37.026Z,19.99
2018-06-01T09:41:37.023Z,20.06
2018-06-01T09:42:37.025Z,20.02
2018-06-01T09:43:37.019Z,19.96
2018-06-01T09:44:37.027Z,20.03
2018-06-01T09:45:37.007Z,20.02
2018-06-01T09:46:37.893Z,19.95
2018-06-01T09:47:37.004Z,19.92
2018-06-01T09:48:37.002Z,19.77
2018-06-01T09:49:36.996Z,19.84
2018-06-01T09:50:36.993Z,19.95
2018-06-01T09:51:36.994Z,19.91
2018-06-01T09:52:36.987Z,19.92
2018-06-01T09:53:36.984Z,19.81
2018-06-01T09:54:36.978Z,19.92
2018-06-01T09:55:36.977Z,20.06
2018-06-01T09:56:36.968Z,19.99
2018-06-01T09:57:36.965Z,19.99
2018-06-01T09:58:36.969Z,20.03
2018-06-01T09:59:36.958Z,20.00
2018-06-01T10:00:36.957Z,20.02
2018-06-01T10:01:36.956Z,20.06
2018-06-01T10:02:36.959Z,20.07
2018-06-01T10:03:36.958Z,20.09
2018-06-01T10:04:36.950Z,20.11
2018-06-01T10:05:36.939Z,20.09
2018-06-01T10:06:37.793Z,20.13
2018-06-01T10:07:36.932Z,19.99
2018-06-01T10:08:36.930Z,20.09
2018-06-01T10:09:36.924Z,20.02
2018-06-01T10:10:36.920Z,19.84
2018-06-01T10:11:36.920Z,19.84
2018-06-01T10:12:36.915Z,19.84
2018-06-01T10:13:36.913Z,19.85
2018-06-01T10:14:36.911Z,19.70
2018-06-01T10:15:36.933Z,19.77
2018-06-01T10:16:36.906Z,19.82
2018-06-01T10:17:36.898Z,19.96
2018-06-01T10:18:36.899Z,20.06
2018-06-01T10:19:36.906Z,20.13
2018-06-01T10:20:36.893Z,20.13
2018-06-01T10:21:36.894Z,20.19
2018-06-01T10:22:36.885Z,20.21
2018-06-01T10:23:36.883Z,20.22
2018-06-01T10:24:36.884Z,20.22
2018-06-01T10:25:36.879Z,20.39
2018-06-01T10:26:36.877Z,20.43
2018-06-01T10:27:36.870Z,20.41
2018-06-01T10:28:36.869Z,20.56
2018-06-01T10:29:36.868Z,20.51
2018-06-01T10:30:36.862Z,20.58
2018-06-01T10:31:36.866Z,20.58
2018-06-01T10:32:36.860Z,20.51
2018-06-01T10:33:36.855Z,20.43
2018-06-01T10:34:36.853Z,20.37
2018-06-01T10:35:36.852Z,20.39
2018-06-01T10:36:36.849Z,20.50
2018-06-01T10:37:36.848Z,20.52
2018-06-01T10:38:36.840Z,20.55
2018-06-01T10:39:36.896Z,20.67
2018-06-01T10:40:36.836Z,20.77
2018-06-01T10:41:36.837Z,20.80
2018-06-01T10:42:36.839Z,20.92
2018-06-01T10:43:36.834Z,21.15
2018-06-01T10:44:36.831Z,21.11
2018-06-01T10:45:36.830Z,21.05
2018-06-01T10:46:36.825Z,21.22
2018-06-01T10:47:36.825Z,21.43
2018-06-01T10:48:36.827Z,21.52
2018-06-01T10:49:36.880Z,21.43
2018-06-01T10:50:36.822Z,21.35
2018-06-01T10:51:36.830Z,21.33
2018-06-01T10:52:36.824Z,21.73
2018-06-01T10:53:36.820Z,22.13
2018-06-01T10:54:36.821Z,22.33
2018-06-01T10:55:36.825Z,22.35
2018-06-01T10:56:36.823Z,22.70
2018-06-01T10:57:36.831Z,22.76
2018-06-01T10:58:36.827Z,22.88
2018-06-01T10:59:36.839Z,23.08
2018-06-01T11:00:36.840Z,22.76
2018-06-01T11:01:36.838Z,22.76
2018-06-01T11:02:36.830Z,22.84
2018-06-01T11:03:36.833Z,23.21
2018-06-01T11:04:36.836Z,23.54
2018-06-01T11:05:36.839Z,23.46
2018-06-01T11:06:36.851Z,23.74
2018-06-01T11:07:36.855Z,23.87
2018-06-01T11:08:36.851Z,23.86
2018-06-01T11:09:36.860Z,24.02
2018-06-01T11:10:36.858Z,24.26
2018-06-01T11:11:36.869Z,24.24
2018-06-01T11:12:36.867Z,24.24
2018-06-01T11:13:36.915Z,24.28
2018-06-01T11:14:36.878Z,24.24
2018-06-01T11:15:36.906Z,24.28
2018-06-01T11:16:36.890Z,24.32
2018-06-01T11:17:36.893Z,24.42
2018-06-01T11:18:36.902Z,24.45
2018-06-01T11:19:36.902Z,24.51
2018-06-01T11:20:36.915Z,24.57
2018-06-01T11:21:36.984Z,24.60
2018-06-01T11:22:36.920Z,24.66
2018-06-01T11:23:36.967Z,24.85
2018-06-01T11:24:36.935Z,24.98
2018-06-01T11:25:36.957Z,25.08
2018-06-01T11:26:36.945Z,24.89
2018-06-01T11:27:36.949Z,24.78
2018-06-01T11:28:36.958Z,24.76
2018-06-01T11:29:36.961Z,24.66
2018-06-01T11:30:36.969Z,24.58
2018-06-01T11:31:36.975Z,24.39
2018-06-01T11:32:36.986Z,24.36
2018-06-01T11:33:36.996Z,24.17
2018-06-01T11:34:36.997Z,24.05
2018-06-01T11:35:36.993Z,23.99
2018-06-01T11:36:36.997Z,24.05
2018-06-01T11:37:37.003Z,24.11
2018-06-01T11:38:37.001Z,24.29
2018-06-01T11:39:37.009Z,24.36
2018-06-01T11:40:37.018Z,24.60
2018-06-01T11:41:37.020Z,24.65
2018-06-01T11:42:37.026Z,24.98
2018-06-01T11:43:37.024Z,24.89
2018-06-01T11:44:37.031Z,24.73
2018-06-01T11:45:37.043Z,24.63
2018-06-01T11:46:37.040Z,24.57
2018-06-01T11:47:37.049Z,24.47
2018-06-01T11:48:37.050Z,24.47
2018-06-01T11:49:37.050Z,24.54
2018-06-01T11:50:37.056Z,24.43
2018-06-01T11:51:37.059Z,24.51
2018-06-01T11:52:37.064Z,24.47
2018-06-01T11:53:37.065Z,24.47
2018-06-01T11:54:39.869Z,24.58
2018-06-01T11:55:37.076Z,24.85
2018-06-01T11:56:37.079Z,25.01
2018-06-01T11:57:37.082Z,25.11
2018-06-01T11:58:37.086Z,25.07
2018-06-01T11:59:37.092Z,24.85
2018-06-01T12:00:37.094Z,24.80
2018-06-01T12:01:37.133Z,24.65
2018-06-01T12:02:37.105Z,24.53
2018-06-01T12:03:37.113Z,24.53
2018-06-01T12:04:37.109Z,24.43
2018-06-01T12:05:37.131Z,24.50
2018-06-01T12:06:37.113Z,24.47
2018-06-01T12:07:37.122Z,24.60
2018-06-01T12:08:37.124Z,24.80
2018-06-01T12:09:37.124Z,24.95
2018-06-01T12:10:37.174Z,24.91
2018-06-01T12:11:37.131Z,24.92
2018-06-01T12:12:37.134Z,25.10
2018-06-01T12:13:37.137Z,25.23
2018-06-01T12:14:37.140Z,25.16
2018-06-01T12:15:37.146Z,25.32
2018-06-01T12:16:37.149Z,25.29
2018-06-01T12:17:37.266Z,25.28
2018-06-01T12:18:37.156Z,25.32
2018-06-01T12:19:37.161Z,25.16
2018-06-01T12:20:37.164Z,25.21
2018-06-01T12:21:37.167Z,25.23
2018-06-01T12:22:37.178Z,25.25
2018-06-01T12:23:37.176Z,25.48
2018-06-01T12:24:37.186Z,25.58
2018-06-01T12:25:37.192Z,25.68
2018-06-01T12:26:37.199Z,26.13
2018-06-01T12:27:37.204Z,26.47
2018-06-01T12:28:37.211Z,26.65
2018-06-01T12:29:37.211Z,26.89
2018-06-01T12:30:37.225Z,27.40
2018-06-01T12:31:37.225Z,27.67
2018-06-01T12:32:37.230Z,27.63
2018-06-01T12:33:37.232Z,27.74
2018-06-01T12:34:37.244Z,28.00
2018-06-01T12:35:37.247Z,27.90
2018-06-01T12:36:37.267Z,27.89
2018-06-01T12:37:37.375Z,28.08
2018-06-01T12:38:37.275Z,27.92
2018-06-01T12:39:37.274Z,27.75
2018-06-01T12:40:37.283Z,27.70
2018-06-01T12:41:37.286Z,27.65
2018-06-01T12:42:37.290Z,27.68
2018-06-01T12:43:37.305Z,27.59
2018-06-01T12:44:37.309Z,27.54
2018-06-01T12:45:37.318Z,27.48
2018-06-01T12:46:37.323Z,27.40
2018-06-01T12:47:37.325Z,27.20
2018-06-01T12:48:37.345Z,26.95
2018-06-01T12:49:37.337Z,26.83
2018-06-01T12:50:37.354Z,26.60
2018-06-01T12:51:37.360Z,26.40
2018-06-01T12:52:37.363Z,26.51